sensor_id;sensor_type;location;lat;lon;timestamp;P1;durP1;ratioP1;P2;durP2;ratioP2
38455;SDS011;24237;50.106;20.014;2023-11-19T00:00:33;32.90;;;16.05;;
38455;SDS011;24237;50.106;20.014;2023-11-19T00:02:58;34.20;;;15.63;;
38455;SDS011;24237;50.106;20.014;2023-11-19T00:05:24;30.85;;;17.00;;
38455;SDS011;24237;50.106;20.014;2023-11-19T00:07:50;31.92;;;16.15;;
38455;SDS011;24237;50.106;20.014;2023-11-19T00:10:16;34.08;;;17.17;;
38455;SDS011;24237;50.106;20.014;2023-11-19T00:12:46;35.20;;;16.98;;
38455;SDS011;24237;50.106;20.014;2023-11-19T00:15:13;24.85;;;12.77;;
38455;SDS011;24237;50.106;20.014;2023-11-19T00:17:42;36.15;;;17.02;;
38455;SDS011;24237;50.106;20.014;2023-11-19T00:20:18;30.92;;;15.07;;
38455;SDS011;24237;50.106;20.014;2023-11-19T00:22:47;37.08;;;18.20;;
38455;SDS011;24237;50.106;20.014;2023-11-19T00:25:16;32.33;;;17.92;;
38455;SDS011;24237;50.106;20.014;2023-11-19T00:27:42;35.00;;;17.27;;
38455;SDS011;24237;50.106;20.014;2023-11-19T00:30:09;33.08;;;15.38;;
38455;SDS011;24237;50.106;20.014;2023-11-19T00:32:35;29.80;;;15.27;;
38455;SDS011;24237;50.106;20.014;2023-11-19T00:35:03;32.72;;;16.67;;
38455;SDS011;24237;50.106;20.014;2023-11-19T00:37:29;32.73;;;16.97;;
38455;SDS011;24237;50.106;20.014;2023-11-19T00:39:55;32.92;;;15.95;;
38455;SDS011;24237;50.106;20.014;2023-11-19T00:42:24;26.52;;;13.95;;
38455;SDS011;24237;50.106;20.014;2023-11-19T00:44:52;28.13;;;14.73;;
38455;SDS011;24237;50.106;20.014;2023-11-19T00:47:18;31.60;;;15.02;;
38455;SDS011;24237;50.106;20.014;2023-11-19T00:49:47;31.42;;;15.60;;
38455;SDS011;24237;50.106;20.014;2023-11-19T00:52:16;32.65;;;17.33;;
38455;SDS011;24237;50.106;20.014;2023-11-19T00:54:42;29.45;;;14.20;;
38455;SDS011;24237;50.106;20.014;2023-11-19T00:57:08;30.10;;;15.05;;
38455;SDS011;24237;50.106;20.014;2023-11-19T00:59:34;30.17;;;15.90;;
38455;SDS011;24237;50.106;20.014;2023-11-19T01:02:00;29.60;;;14.93;;
38455;SDS011;24237;50.106;20.014;2023-11-19T01:04:32;26.80;;;15.65;;
38455;SDS011;24237;50.106;20.014;2023-11-19T01:06:59;29.92;;;16.35;;
38455;SDS011;24237;50.106;20.014;2023-11-19T01:09:28;32.45;;;15.75;;
38455;SDS011;24237;50.106;20.014;2023-11-19T01:11:54;32.28;;;15.85;;
38455;SDS011;24237;50.106;20.014;2023-11-19T01:14:20;28.88;;;15.32;;
38455;SDS011;24237;50.106;20.014;2023-11-19T01:16:46;29.33;;;15.40;;
38455;SDS011;24237;50.106;20.014;2023-11-19T01:19:11;29.30;;;16.65;;
38455;SDS011;24237;50.106;20.014;2023-11-19T01:21:37;33.03;;;16.48;;
38455;SDS011;24237;50.106;20.014;2023-11-19T01:24:02;31.23;;;15.35;;
38455;SDS011;24237;50.106;20.014;2023-11-19T01:26:31;29.80;;;16.33;;
38455;SDS011;24237;50.106;20.014;2023-11-19T01:28:56;33.70;;;15.30;;
38455;SDS011;24237;50.106;20.014;2023-11-19T01:31:22;33.47;;;16.35;;
38455;SDS011;24237;50.106;20.014;2023-11-19T01:33:48;30.05;;;15.13;;
38455;SDS011;24237;50.106;20.014;2023-11-19T01:36:13;28.30;;;14.82;;
38455;SDS011;24237;50.106;20.014;2023-11-19T01:38:39;29.77;;;15.20;;
38455;SDS011;24237;50.106;20.014;2023-11-19T01:41:05;31.20;;;14.63;;
38455;SDS011;24237;50.106;20.014;2023-11-19T01:43:34;28.05;;;15.63;;
38455;SDS011;24237;50.106;20.014;2023-11-19T01:46:01;29.83;;;15.95;;
38455;SDS011;24237;50.106;20.014;2023-11-19T01:48:31;31.70;;;16.50;;
38455;SDS011;24237;50.106;20.014;2023-11-19T01:50:59;30.35;;;16.15;;
38455;SDS011;24237;50.106;20.014;2023-11-19T01:53:27;34.95;;;16.60;;
38455;SDS011;24237;50.106;20.014;2023-11-19T01:55:54;30.00;;;15.85;;
38455;SDS011;24237;50.106;20.014;2023-11-19T01:58:20;29.73;;;16.33;;
38455;SDS011;24237;50.106;20.014;2023-11-19T02:00:48;32.63;;;17.98;;
38455;SDS011;24237;50.106;20.014;2023-11-19T02:03:14;29.45;;;15.57;;
38455;SDS011;24237;50.106;20.014;2023-11-19T02:05:40;31.05;;;16.65;;
38455;SDS011;24237;50.106;20.014;2023-11-19T02:08:06;33.15;;;16.08;;
38455;SDS011;24237;50.106;20.014;2023-11-19T02:10:31;28.40;;;15.35;;
38455;SDS011;24237;50.106;20.014;2023-11-19T02:13:00;32.38;;;16.30;;
38455;SDS011;24237;50.106;20.014;2023-11-19T02:15:26;29.88;;;16.48;;
38455;SDS011;24237;50.106;20.014;2023-11-19T02:17:51;30.48;;;17.02;;
38455;SDS011;24237;50.106;20.014;2023-11-19T02:20:17;31.52;;;15.80;;
38455;SDS011;24237;50.106;20.014;2023-11-19T02:25:14;27.95;;;14.50;;
38455;SDS011;24237;50.106;20.014;2023-11-19T02:30:23;27.17;;;16.05;;
38455;SDS011;24237;50.106;20.014;2023-11-19T02:32:53;29.25;;;15.60;;
38455;SDS011;24237;50.106;20.014;2023-11-19T02:35:22;35.60;;;16.73;;
38455;SDS011;24237;50.106;20.014;2023-11-19T02:37:48;33.30;;;18.08;;
38455;SDS011;24237;50.106;20.014;2023-11-19T02:40:14;36.40;;;18.08;;
38455;SDS011;24237;50.106;20.014;2023-11-19T02:42:39;34.78;;;17.30;;
38455;SDS011;24237;50.106;20.014;2023-11-19T02:45:05;33.42;;;18.38;;
38455;SDS011;24237;50.106;20.014;2023-11-19T02:47:32;35.88;;;18.13;;
38455;SDS011;24237;50.106;20.014;2023-11-19T02:49:58;30.48;;;16.92;;
38455;SDS011;24237;50.106;20.014;2023-11-19T02:52:24;33.50;;;17.25;;
38455;SDS011;24237;50.106;20.014;2023-11-19T02:54:51;32.08;;;16.98;;
38455;SDS011;24237;50.106;20.014;2023-11-19T02:57:17;32.80;;;17.33;;
38455;SDS011;24237;50.106;20.014;2023-11-19T02:59:46;32.17;;;16.98;;
38455;SDS011;24237;50.106;20.014;2023-11-19T03:02:11;33.45;;;17.23;;
38455;SDS011;24237;50.106;20.014;2023-11-19T03:04:37;35.45;;;18.23;;
38455;SDS011;24237;50.106;20.014;2023-11-19T03:07:07;37.90;;;17.33;;
38455;SDS011;24237;50.106;20.014;2023-11-19T03:09:33;36.53;;;18.85;;
38455;SDS011;24237;50.106;20.014;2023-11-19T03:12:00;34.30;;;18.02;;
38455;SDS011;24237;50.106;20.014;2023-11-19T03:14:26;33.45;;;17.67;;
38455;SDS011;24237;50.106;20.014;2023-11-19T03:16:52;34.47;;;18.15;;
38455;SDS011;24237;50.106;20.014;2023-11-19T03:19:18;32.00;;;18.45;;
38455;SDS011;24237;50.106;20.014;2023-11-19T03:21:44;37.75;;;18.95;;
38455;SDS011;24237;50.106;20.014;2023-11-19T03:24:10;35.47;;;17.75;;
38455;SDS011;24237;50.106;20.014;2023-11-19T03:26:38;34.60;;;18.20;;
38455;SDS011;24237;50.106;20.014;2023-11-19T03:29:04;34.05;;;18.83;;
38455;SDS011;24237;50.106;20.014;2023-11-19T03:31:30;33.90;;;17.65;;
38455;SDS011;24237;50.106;20.014;2023-11-19T03:33:55;39.13;;;19.33;;
38455;SDS011;24237;50.106;20.014;2023-11-19T03:36:21;36.22;;;18.95;;
38455;SDS011;24237;50.106;20.014;2023-11-19T03:38:47;38.72;;;20.70;;
38455;SDS011;24237;50.106;20.014;2023-11-19T03:41:13;35.60;;;18.90;;
38455;SDS011;24237;50.106;20.014;2023-11-19T03:43:40;39.75;;;19.48;;
38455;SDS011;24237;50.106;20.014;2023-11-19T03:46:18;44.55;;;21.70;;
38455;SDS011;24237;50.106;20.014;2023-11-19T03:48:48;39.83;;;21.35;;
38455;SDS011;24237;50.106;20.014;2023-11-19T03:51:15;40.53;;;21.02;;
38455;SDS011;24237;50.106;20.014;2023-11-19T03:53:43;41.28;;;20.95;;
38455;SDS011;24237;50.106;20.014;2023-11-19T03:56:12;39.08;;;20.58;;
38455;SDS011;24237;50.106;20.014;2023-11-19T03:58:38;39.72;;;20.20;;
38455;SDS011;24237;50.106;20.014;2023-11-19T04:01:04;36.20;;;20.98;;
38455;SDS011;24237;50.106;20.014;2023-11-19T04:03:30;44.00;;;21.02;;
38455;SDS011;24237;50.106;20.014;2023-11-19T04:05:56;41.45;;;21.08;;
38455;SDS011;24237;50.106;20.014;2023-11-19T04:08:22;43.03;;;22.30;;
38455;SDS011;24237;50.106;20.014;2023-11-19T04:10:48;40.78;;;21.75;;
38455;SDS011;24237;50.106;20.014;2023-11-19T04:13:13;41.13;;;21.58;;
38455;SDS011;24237;50.106;20.014;2023-11-19T04:15:39;41.40;;;21.83;;
38455;SDS011;24237;50.106;20.014;2023-11-19T04:18:05;43.35;;;21.42;;
38455;SDS011;24237;50.106;20.014;2023-11-19T04:20:30;50.53;;;23.83;;
38455;SDS011;24237;50.106;20.014;2023-11-19T04:22:56;46.42;;;23.13;;
38455;SDS011;24237;50.106;20.014;2023-11-19T04:25:22;43.22;;;23.30;;
38455;SDS011;24237;50.106;20.014;2023-11-19T04:27:51;44.15;;;22.20;;
38455;SDS011;24237;50.106;20.014;2023-11-19T04:30:17;49.13;;;23.77;;
38455;SDS011;24237;50.106;20.014;2023-11-19T04:32:43;42.78;;;22.42;;
38455;SDS011;24237;50.106;20.014;2023-11-19T04:35:09;46.95;;;23.98;;
38455;SDS011;24237;50.106;20.014;2023-11-19T04:37:35;44.30;;;23.48;;
38455;SDS011;24237;50.106;20.014;2023-11-19T04:40:02;48.58;;;23.10;;
38455;SDS011;24237;50.106;20.014;2023-11-19T04:42:28;46.15;;;23.50;;
38455;SDS011;24237;50.106;20.014;2023-11-19T04:44:54;47.03;;;22.98;;
38455;SDS011;24237;50.106;20.014;2023-11-19T04:47:20;47.97;;;23.52;;
38455;SDS011;24237;50.106;20.014;2023-11-19T04:49:46;49.70;;;25.38;;
38455;SDS011;24237;50.106;20.014;2023-11-19T04:52:11;53.13;;;26.10;;
38455;SDS011;24237;50.106;20.014;2023-11-19T04:54:41;48.20;;;23.60;;
38455;SDS011;24237;50.106;20.014;2023-11-19T04:57:07;52.58;;;24.60;;
38455;SDS011;24237;50.106;20.014;2023-11-19T04:59:36;53.65;;;25.17;;
38455;SDS011;24237;50.106;20.014;2023-11-19T05:02:01;48.67;;;23.70;;
38455;SDS011;24237;50.106;20.014;2023-11-19T05:04:29;46.17;;;23.38;;
38455;SDS011;24237;50.106;20.014;2023-11-19T05:06:55;49.10;;;23.70;;
38455;SDS011;24237;50.106;20.014;2023-11-19T05:09:20;51.75;;;24.83;;
38455;SDS011;24237;50.106;20.014;2023-11-19T05:11:46;54.40;;;25.42;;
38455;SDS011;24237;50.106;20.014;2023-11-19T05:14:12;47.85;;;24.40;;
38455;SDS011;24237;50.106;20.014;2023-11-19T05:16:40;50.22;;;23.15;;
38455;SDS011;24237;50.106;20.014;2023-11-19T05:19:06;53.05;;;24.83;;
38455;SDS011;24237;50.106;20.014;2023-11-19T05:21:32;56.55;;;25.52;;
38455;SDS011;24237;50.106;20.014;2023-11-19T05:23:58;52.15;;;25.02;;
38455;SDS011;24237;50.106;20.014;2023-11-19T05:26:24;45.00;;;23.85;;
38455;SDS011;24237;50.106;20.014;2023-11-19T05:28:50;45.22;;;22.77;;
38455;SDS011;24237;50.106;20.014;2023-11-19T05:31:18;48.03;;;24.27;;
38455;SDS011;24237;50.106;20.014;2023-11-19T05:33:43;46.25;;;23.98;;
38455;SDS011;24237;50.106;20.014;2023-11-19T05:36:10;49.25;;;22.90;;
38455;SDS011;24237;50.106;20.014;2023-11-19T05:38:37;55.17;;;25.13;;
38455;SDS011;24237;50.106;20.014;2023-11-19T05:41:03;49.05;;;24.52;;
38455;SDS011;24237;50.106;20.014;2023-11-19T05:43:30;47.75;;;24.08;;
38455;SDS011;24237;50.106;20.014;2023-11-19T05:45:56;48.40;;;25.90;;
38455;SDS011;24237;50.106;20.014;2023-11-19T05:48:21;49.47;;;24.20;;
38455;SDS011;24237;50.106;20.014;2023-11-19T05:50:47;53.22;;;25.42;;
38455;SDS011;24237;50.106;20.014;2023-11-19T05:53:15;42.60;;;22.63;;
38455;SDS011;24237;50.106;20.014;2023-11-19T05:55:41;52.65;;;24.17;;
38455;SDS011;24237;50.106;20.014;2023-11-19T05:58:28;49.42;;;23.48;;
38455;SDS011;24237;50.106;20.014;2023-11-19T06:00:54;55.17;;;25.23;;
38455;SDS011;24237;50.106;20.014;2023-11-19T06:03:21;48.30;;;23.15;;
38455;SDS011;24237;50.106;20.014;2023-11-19T06:05:49;48.65;;;25.05;;
38455;SDS011;24237;50.106;20.014;2023-11-19T06:08:15;50.17;;;24.13;;
38455;SDS011;24237;50.106;20.014;2023-11-19T06:10:42;51.08;;;25.15;;
38455;SDS011;24237;50.106;20.014;2023-11-19T06:13:07;52.85;;;23.65;;
38455;SDS011;24237;50.106;20.014;2023-11-19T06:15:35;49.10;;;22.80;;
38455;SDS011;24237;50.106;20.014;2023-11-19T06:18:01;51.08;;;25.23;;
38455;SDS011;24237;50.106;20.014;2023-11-19T06:20:29;53.33;;;25.45;;
38455;SDS011;24237;50.106;20.014;2023-11-19T06:22:55;55.45;;;25.05;;
38455;SDS011;24237;50.106;20.014;2023-11-19T06:25:21;51.40;;;24.90;;
38455;SDS011;24237;50.106;20.014;2023-11-19T06:27:49;49.25;;;23.98;;
38455;SDS011;24237;50.106;20.014;2023-11-19T06:30:14;49.53;;;24.98;;
38455;SDS011;24237;50.106;20.014;2023-11-19T06:32:40;46.22;;;23.00;;
38455;SDS011;24237;50.106;20.014;2023-11-19T06:35:06;45.55;;;22.17;;
38455;SDS011;24237;50.106;20.014;2023-11-19T06:37:32;50.63;;;23.58;;
38455;SDS011;24237;50.106;20.014;2023-11-19T06:39:58;44.00;;;21.65;;
38455;SDS011;24237;50.106;20.014;2023-11-19T06:42:24;41.90;;;21.90;;
38455;SDS011;24237;50.106;20.014;2023-11-19T06:44:49;36.75;;;19.60;;
38455;SDS011;24237;50.106;20.014;2023-11-19T06:47:16;43.25;;;22.48;;
38455;SDS011;24237;50.106;20.014;2023-11-19T06:49:43;50.90;;;23.20;;
38455;SDS011;24237;50.106;20.014;2023-11-19T06:52:09;47.63;;;22.92;;
38455;SDS011;24237;50.106;20.014;2023-11-19T06:54:35;46.35;;;23.40;;
38455;SDS011;24237;50.106;20.014;2023-11-19T06:57:01;46.55;;;22.98;;
38455;SDS011;24237;50.106;20.014;2023-11-19T06:59:28;40.78;;;20.70;;
38455;SDS011;24237;50.106;20.014;2023-11-19T07:01:54;46.78;;;24.67;;
38455;SDS011;24237;50.106;20.014;2023-11-19T07:04:20;44.72;;;23.00;;
38455;SDS011;24237;50.106;20.014;2023-11-19T07:06:46;54.75;;;24.35;;
38455;SDS011;24237;50.106;20.014;2023-11-19T07:09:13;50.88;;;23.33;;
38455;SDS011;24237;50.106;20.014;2023-11-19T07:11:39;48.83;;;24.17;;
38455;SDS011;24237;50.106;20.014;2023-11-19T07:14:06;44.22;;;23.10;;
38455;SDS011;24237;50.106;20.014;2023-11-19T07:16:33;49.65;;;23.02;;
38455;SDS011;24237;50.106;20.014;2023-11-19T07:19:00;50.27;;;23.63;;
38455;SDS011;24237;50.106;20.014;2023-11-19T07:21:26;44.95;;;22.48;;
38455;SDS011;24237;50.106;20.014;2023-11-19T07:23:53;46.58;;;24.08;;
38455;SDS011;24237;50.106;20.014;2023-11-19T07:26:19;45.50;;;23.07;;
38455;SDS011;24237;50.106;20.014;2023-11-19T07:28:45;45.70;;;22.55;;
38455;SDS011;24237;50.106;20.014;2023-11-19T07:31:11;51.70;;;24.63;;
38455;SDS011;24237;50.106;20.014;2023-11-19T07:33:39;47.60;;;24.35;;
38455;SDS011;24237;50.106;20.014;2023-11-19T07:36:05;40.60;;;21.43;;
38455;SDS011;24237;50.106;20.014;2023-11-19T07:38:31;44.13;;;22.27;;
38455;SDS011;24237;50.106;20.014;2023-11-19T07:40:56;45.60;;;23.58;;
38455;SDS011;24237;50.106;20.014;2023-11-19T07:43:22;42.78;;;22.73;;
38455;SDS011;24237;50.106;20.014;2023-11-19T07:45:48;42.60;;;22.17;;
38455;SDS011;24237;50.106;20.014;2023-11-19T07:48:13;48.50;;;23.85;;
38455;SDS011;24237;50.106;20.014;2023-11-19T07:50:40;46.83;;;23.20;;
38455;SDS011;24237;50.106;20.014;2023-11-19T07:53:06;42.88;;;22.67;;
38455;SDS011;24237;50.106;20.014;2023-11-19T07:55:32;41.28;;;21.23;;
38455;SDS011;24237;50.106;20.014;2023-11-19T07:57:58;47.58;;;20.48;;
38455;SDS011;24237;50.106;20.014;2023-11-19T08:00:24;40.97;;;20.10;;
38455;SDS011;24237;50.106;20.014;2023-11-19T08:02:49;33.70;;;17.45;;
38455;SDS011;24237;50.106;20.014;2023-11-19T08:05:15;34.15;;;16.83;;
38455;SDS011;24237;50.106;20.014;2023-11-19T08:07:41;29.40;;;16.38;;
38455;SDS011;24237;50.106;20.014;2023-11-19T08:10:08;34.95;;;16.67;;
38455;SDS011;24237;50.106;20.014;2023-11-19T08:12:36;32.00;;;15.75;;
38455;SDS011;24237;50.106;20.014;2023-11-19T08:15:02;28.83;;;15.43;;
38455;SDS011;24237;50.106;20.014;2023-11-19T08:17:29;25.67;;;14.23;;
38455;SDS011;24237;50.106;20.014;2023-11-19T08:19:55;24.48;;;12.93;;
38455;SDS011;24237;50.106;20.014;2023-11-19T08:22:21;25.95;;;14.13;;
38455;SDS011;24237;50.106;20.014;2023-11-19T08:24:47;23.73;;;11.65;;
38455;SDS011;24237;50.106;20.014;2023-11-19T08:27:13;27.25;;;13.07;;
38455;SDS011;24237;50.106;20.014;2023-11-19T08:29:39;25.00;;;12.00;;
38455;SDS011;24237;50.106;20.014;2023-11-19T08:32:05;24.73;;;13.38;;
38455;SDS011;24237;50.106;20.014;2023-11-19T08:34:31;26.67;;;13.90;;
38455;SDS011;24237;50.106;20.014;2023-11-19T08:36:57;21.40;;;11.65;;
38455;SDS011;24237;50.106;20.014;2023-11-19T08:39:24;33.95;;;16.70;;
38455;SDS011;24237;50.106;20.014;2023-11-19T08:41:49;21.88;;;10.95;;
38455;SDS011;24237;50.106;20.014;2023-11-19T08:44:16;23.10;;;11.07;;
38455;SDS011;24237;50.106;20.014;2023-11-19T08:46:50;20.48;;;11.07;;
38455;SDS011;24237;50.106;20.014;2023-11-19T08:49:16;17.92;;;9.95;;
38455;SDS011;24237;50.106;20.014;2023-11-19T08:51:42;18.90;;;10.30;;
38455;SDS011;24237;50.106;20.014;2023-11-19T08:54:08;20.83;;;10.02;;
38455;SDS011;24237;50.106;20.014;2023-11-19T08:56:33;21.98;;;11.88;;
38455;SDS011;24237;50.106;20.014;2023-11-19T08:59:00;18.33;;;10.75;;
38455;SDS011;24237;50.106;20.014;2023-11-19T09:01:26;17.63;;;10.30;;
38455;SDS011;24237;50.106;20.014;2023-11-19T09:03:52;20.35;;;10.80;;
38455;SDS011;24237;50.106;20.014;2023-11-19T09:06:17;20.23;;;10.18;;
38455;SDS011;24237;50.106;20.014;2023-11-19T09:08:43;20.73;;;11.27;;
38455;SDS011;24237;50.106;20.014;2023-11-19T09:11:09;19.77;;;10.55;;
38455;SDS011;24237;50.106;20.014;2023-11-19T09:13:37;22.95;;;12.23;;
38455;SDS011;24237;50.106;20.014;2023-11-19T09:16:03;19.48;;;11.00;;
38455;SDS011;24237;50.106;20.014;2023-11-19T09:18:29;21.73;;;10.95;;
38455;SDS011;24237;50.106;20.014;2023-11-19T09:20:55;20.13;;;10.95;;
38455;SDS011;24237;50.106;20.014;2023-11-19T09:23:21;24.52;;;11.68;;
38455;SDS011;24237;50.106;20.014;2023-11-19T09:25:46;22.17;;;11.10;;
38455;SDS011;24237;50.106;20.014;2023-11-19T09:28:12;21.20;;;10.80;;
38455;SDS011;24237;50.106;20.014;2023-11-19T09:30:39;20.08;;;10.25;;
38455;SDS011;24237;50.106;20.014;2023-11-19T09:33:05;20.70;;;11.38;;
38455;SDS011;24237;50.106;20.014;2023-11-19T09:35:31;24.63;;;10.85;;
38455;SDS011;24237;50.106;20.014;2023-11-19T09:37:56;21.60;;;10.93;;
38455;SDS011;24237;50.106;20.014;2023-11-19T09:40:24;20.75;;;11.10;;
38455;SDS011;24237;50.106;20.014;2023-11-19T09:42:50;20.63;;;10.37;;
38455;SDS011;24237;50.106;20.014;2023-11-19T09:45:17;19.25;;;10.77;;
38455;SDS011;24237;50.106;20.014;2023-11-19T09:47:46;24.02;;;10.98;;
38455;SDS011;24237;50.106;20.014;2023-11-19T09:50:21;17.52;;;10.00;;
38455;SDS011;24237;50.106;20.014;2023-11-19T09:52:47;24.75;;;10.77;;
38455;SDS011;24237;50.106;20.014;2023-11-19T09:55:13;21.58;;;11.48;;
38455;SDS011;24237;50.106;20.014;2023-11-19T09:57:39;20.35;;;10.82;;
38455;SDS011;24237;50.106;20.014;2023-11-19T10:00:07;19.50;;;10.13;;
38455;SDS011;24237;50.106;20.014;2023-11-19T10:02:35;19.23;;;10.38;;
38455;SDS011;24237;50.106;20.014;2023-11-19T10:05:08;21.35;;;11.60;;
38455;SDS011;24237;50.106;20.014;2023-11-19T10:07:35;18.40;;;10.60;;
38455;SDS011;24237;50.106;20.014;2023-11-19T10:10:01;19.52;;;10.18;;
38455;SDS011;24237;50.106;20.014;2023-11-19T10:12:29;19.65;;;10.82;;
38455;SDS011;24237;50.106;20.014;2023-11-19T10:14:58;21.58;;;10.80;;
38455;SDS011;24237;50.106;20.014;2023-11-19T10:17:28;18.85;;;10.07;;
38455;SDS011;24237;50.106;20.014;2023-11-19T10:19:57;22.15;;;10.10;;
38455;SDS011;24237;50.106;20.014;2023-11-19T10:22:23;17.05;;;9.05;;
38455;SDS011;24237;50.106;20.014;2023-11-19T10:24:50;20.92;;;10.32;;
38455;SDS011;24237;50.106;20.014;2023-11-19T10:27:15;15.93;;;10.10;;
38455;SDS011;24237;50.106;20.014;2023-11-19T10:29:44;17.50;;;10.55;;
38455;SDS011;24237;50.106;20.014;2023-11-19T10:32:11;21.83;;;11.90;;
38455;SDS011;24237;50.106;20.014;2023-11-19T10:34:38;22.10;;;10.43;;
38455;SDS011;24237;50.106;20.014;2023-11-19T10:37:04;21.40;;;10.75;;
38455;SDS011;24237;50.106;20.014;2023-11-19T10:42:22;20.98;;;10.80;;
38455;SDS011;24237;50.106;20.014;2023-11-19T10:44:48;18.05;;;10.07;;
38455;SDS011;24237;50.106;20.014;2023-11-19T10:47:14;24.40;;;12.18;;
38455;SDS011;24237;50.106;20.014;2023-11-19T10:49:42;26.65;;;14.82;;
38455;SDS011;24237;50.106;20.014;2023-11-19T10:52:08;23.92;;;12.18;;
38455;SDS011;24237;50.106;20.014;2023-11-19T10:54:34;19.02;;;11.02;;
38455;SDS011;24237;50.106;20.014;2023-11-19T10:57:01;19.58;;;10.45;;
38455;SDS011;24237;50.106;20.014;2023-11-19T10:59:28;19.00;;;10.85;;
38455;SDS011;24237;50.106;20.014;2023-11-19T11:01:56;23.70;;;11.63;;
38455;SDS011;24237;50.106;20.014;2023-11-19T11:04:23;19.92;;;10.80;;
38455;SDS011;24237;50.106;20.014;2023-11-19T11:06:54;19.63;;;10.43;;
38455;SDS011;24237;50.106;20.014;2023-11-19T11:09:23;27.15;;;11.88;;
38455;SDS011;24237;50.106;20.014;2023-11-19T11:11:51;22.30;;;11.07;;
38455;SDS011;24237;50.106;20.014;2023-11-19T11:14:19;19.42;;;10.50;;
38455;SDS011;24237;50.106;20.014;2023-11-19T11:16:46;18.52;;;10.23;;
38455;SDS011;24237;50.106;20.014;2023-11-19T11:19:15;19.25;;;10.95;;
38455;SDS011;24237;50.106;20.014;2023-11-19T11:21:42;19.98;;;10.80;;
38455;SDS011;24237;50.106;20.014;2023-11-19T11:26:57;22.33;;;10.18;;
38455;SDS011;24237;50.106;20.014;2023-11-19T11:32:42;19.25;;;10.15;;
38455;SDS011;24237;50.106;20.014;2023-11-19T11:35:16;18.52;;;9.32;;
38455;SDS011;24237;50.106;20.014;2023-11-19T11:38:07;17.13;;;9.23;;
38455;SDS011;24237;50.106;20.014;2023-11-19T11:40:34;20.23;;;11.13;;
38455;SDS011;24237;50.106;20.014;2023-11-19T11:43:01;17.58;;;9.68;;
38455;SDS011;24237;50.106;20.014;2023-11-19T11:45:36;17.42;;;8.48;;
38455;SDS011;24237;50.106;20.014;2023-11-19T11:50:47;17.75;;;10.18;;
38455;SDS011;24237;50.106;20.014;2023-11-19T11:53:17;20.70;;;10.68;;
38455;SDS011;24237;50.106;20.014;2023-11-19T11:58:13;21.17;;;11.15;;
38455;SDS011;24237;50.106;20.014;2023-11-19T12:00:42;19.42;;;10.45;;
38455;SDS011;24237;50.106;20.014;2023-11-19T12:03:08;18.48;;;10.45;;
38455;SDS011;24237;50.106;20.014;2023-11-19T12:05:43;22.05;;;12.23;;
38455;SDS011;24237;50.106;20.014;2023-11-19T12:08:13;23.05;;;11.32;;
38455;SDS011;24237;50.106;20.014;2023-11-19T12:10:50;23.95;;;12.05;;
38455;SDS011;24237;50.106;20.014;2023-11-19T12:13:17;22.67;;;11.75;;
38455;SDS011;24237;50.106;20.014;2023-11-19T12:18:21;21.30;;;11.88;;
38455;SDS011;24237;50.106;20.014;2023-11-19T12:20:52;23.38;;;12.60;;
38455;SDS011;24237;50.106;20.014;2023-11-19T12:23:17;19.30;;;11.63;;
38455;SDS011;24237;50.106;20.014;2023-11-19T12:25:46;20.80;;;11.90;;
38455;SDS011;24237;50.106;20.014;2023-11-19T12:28:12;20.85;;;11.00;;
38455;SDS011;24237;50.106;20.014;2023-11-19T12:30:38;20.80;;;11.20;;
38455;SDS011;24237;50.106;20.014;2023-11-19T12:33:10;19.55;;;9.95;;
38455;SDS011;24237;50.106;20.014;2023-11-19T12:35:40;22.70;;;11.30;;
38455;SDS011;24237;50.106;20.014;2023-11-19T12:38:19;22.42;;;10.32;;
38455;SDS011;24237;50.106;20.014;2023-11-19T12:41:07;13.50;;;8.00;;
38455;SDS011;24237;50.106;20.014;2023-11-19T12:43:36;13.65;;;7.85;;
38455;SDS011;24237;50.106;20.014;2023-11-19T12:46:18;13.45;;;7.15;;
38455;SDS011;24237;50.106;20.014;2023-11-19T12:48:45;11.63;;;6.45;;
38455;SDS011;24237;50.106;20.014;2023-11-19T12:51:12;15.63;;;8.23;;
38455;SDS011;24237;50.106;20.014;2023-11-19T12:56:32;13.27;;;7.40;;
38455;SDS011;24237;50.106;20.014;2023-11-19T12:59:09;14.70;;;8.05;;
